createdAt,value
2022-10-22T00:00:47.112Z,20.5
2022-10-22T00:01:48.902Z,20.5
2022-10-22T00:02:50.590Z,20.5
2022-10-22T00:03:52.625Z,20.5
2022-10-22T00:04:54.341Z,20.5
2022-10-22T00:05:56.492Z,20.5
2022-10-22T00:06:58.277Z,20.6
2022-10-22T00:08:00.042Z,20.5
2022-10-22T00:09:01.671Z,20.5
2022-10-22T00:10:03.831Z,20.5
2022-10-22T00:11:05.463Z,20.5
2022-10-22T00:12:07.075Z,20.5
2022-10-22T00:13:08.646Z,20.5
2022-10-22T00:14:10.254Z,20.5
2022-10-22T00:15:11.799Z,20.5
2022-10-22T00:16:13.463Z,20.5
2022-10-22T00:17:15.066Z,20.4
2022-10-22T00:18:16.692Z,20.5
2022-10-22T00:19:18.325Z,20.5
2022-10-22T00:20:20.006Z,20.5
2022-10-22T00:21:24.561Z,20.5
2022-10-22T00:22:26.109Z,20.4
2022-10-22T00:23:27.681Z,20.4
2022-10-22T00:24:29.265Z,20.5
2022-10-22T00:25:30.993Z,20.4
2022-10-22T00:26:32.517Z,20.5
2022-10-22T00:27:34.107Z,20.5
2022-10-22T00:28:39.747Z,20.4
2022-10-22T00:29:41.376Z,20.4
2022-10-22T00:30:42.920Z,20.4
2022-10-22T00:31:44.698Z,20.4
2022-10-22T00:32:46.799Z,20.4
2022-10-22T00:33:48.654Z,20.4
2022-10-22T00:34:50.232Z,20.4
2022-10-22T00:35:51.898Z,20.3
2022-10-22T00:36:53.667Z,20.3
2022-10-22T00:37:55.379Z,20.4
2022-10-22T00:38:57.024Z,20.4
2022-10-22T00:39:58.692Z,20.4
2022-10-22T00:42:02.920Z,20.4
2022-10-22T00:43:04.506Z,20.4
2022-10-22T00:44:06.146Z,20.4
2022-10-22T00:45:07.854Z,20.4
2022-10-22T00:46:09.385Z,20.4
2022-10-22T00:47:10.985Z,20.4
2022-10-22T00:48:12.543Z,20.4
2022-10-22T00:49:14.276Z,20.4
2022-10-22T00:50:15.880Z,20.4
2022-10-22T00:51:17.656Z,20.4
2022-10-22T00:52:19.370Z,20.3
2022-10-22T00:53:20.910Z,20.3
2022-10-22T00:54:22.557Z,20.3
2022-10-22T00:55:24.329Z,20.3
2022-10-22T00:56:26.096Z,20.3
2022-10-22T00:57:27.735Z,20.3
2022-10-22T00:58:29.287Z,20.3
2022-10-22T00:59:30.862Z,20.3
2022-10-22T01:00:32.560Z,20.3
2022-10-22T01:01:34.691Z,20.3
2022-10-22T01:02:36.251Z,20.3
2022-10-22T01:03:41.540Z,20.2
2022-10-22T01:04:43.207Z,20.3
2022-10-22T01:05:44.862Z,20.3
2022-10-22T01:06:46.719Z,20.3
2022-10-22T01:07:49.103Z,20.3
2022-10-22T01:08:50.711Z,20.3
2022-10-22T01:09:52.773Z,20.3
2022-10-22T01:10:54.359Z,20.3
2022-10-22T01:11:56.392Z,20.3
2022-10-22T01:12:58.004Z,20.3
2022-10-22T01:13:59.570Z,20.3
2022-10-22T01:15:01.092Z,20.3
2022-10-22T01:16:02.680Z,20.3
2022-10-22T01:17:04.294Z,20.2
2022-10-22T01:18:05.899Z,20.2
2022-10-22T01:19:07.528Z,20.2
2022-10-22T01:20:09.083Z,20.3
2022-10-22T01:21:10.656Z,20.3
2022-10-22T01:22:12.458Z,20.3
2022-10-22T01:23:14.314Z,20.3
2022-10-22T01:24:15.981Z,20.3
2022-10-22T01:25:17.509Z,20.3
2022-10-22T01:26:19.117Z,20.3
2022-10-22T01:27:21.406Z,20.3
2022-10-22T01:28:23.092Z,20.3
2022-10-22T01:29:24.745Z,20.3
2022-10-22T01:30:26.342Z,20.3
2022-10-22T01:31:27.886Z,20.3
2022-10-22T01:32:29.538Z,20.3
2022-10-22T01:33:31.252Z,20.2
2022-10-22T01:34:33.068Z,20.2
2022-10-22T01:35:34.657Z,20.3
2022-10-22T01:36:36.564Z,20.2
2022-10-22T01:37:38.931Z,20.2
2022-10-22T01:38:42.250Z,20.2
2022-10-22T01:39:43.811Z,20.2
2022-10-22T01:40:45.382Z,20.2
2022-10-22T01:41:46.999Z,20.2
2022-10-22T01:42:49.171Z,20.2
2022-10-22T01:43:50.803Z,20.2
2022-10-22T01:44:52.594Z,20.2
2022-10-22T01:45:54.136Z,20.3
2022-10-22T01:46:56.187Z,20.2
2022-10-22T01:47:57.813Z,20.2
2022-10-22T01:48:59.525Z,20.2
2022-10-22T01:50:01.072Z,20.2
2022-10-22T01:51:02.756Z,20.2
2022-10-22T01:52:04.372Z,20.2
2022-10-22T01:53:06.102Z,20.2
2022-10-22T01:54:07.909Z,20.2
2022-10-22T01:55:09.967Z,20.2
2022-10-22T01:56:11.544Z,20.2
2022-10-22T01:57:13.253Z,20.2
2022-10-22T01:58:14.818Z,20.2
2022-10-22T01:59:16.446Z,20.2
2022-10-22T02:00:18.048Z,20.2
2022-10-22T02:01:19.705Z,20.1
2022-10-22T02:02:21.394Z,20.1
2022-10-22T02:03:23.654Z,20.1
2022-10-22T02:04:25.662Z,20.1
2022-10-22T02:05:27.332Z,20.1
2022-10-22T02:06:28.982Z,20.2
2022-10-22T02:07:30.589Z,20.1
2022-10-22T02:08:32.394Z,20.1
2022-10-22T02:09:34.406Z,20.1
2022-10-22T02:10:35.971Z,20.1
2022-10-22T02:11:37.589Z,20.1
2022-10-22T02:12:39.410Z,20.1
2022-10-22T02:13:42.345Z,20.1
2022-10-22T02:14:43.894Z,20.1
2022-10-22T02:15:45.594Z,20.1
2022-10-22T02:16:47.808Z,20.1
2022-10-22T02:17:49.341Z,20.1
2022-10-22T02:18:50.881Z,20.1
2022-10-22T02:19:52.449Z,20.1
2022-10-22T02:20:53.997Z,20.1
2022-10-22T02:21:56.260Z,20.1
2022-10-22T02:22:57.987Z,20.1
2022-10-22T02:24:00.093Z,20.1
2022-10-22T02:25:02.036Z,20.1
2022-10-22T02:26:06.729Z,20.1
2022-10-22T02:27:08.331Z,20.1
2022-10-22T02:28:10.025Z,20
2022-10-22T02:29:11.776Z,20.1
2022-10-22T02:30:13.390Z,20.1
2022-10-22T02:31:15.330Z,20.1
2022-10-22T02:32:17.075Z,20
2022-10-22T02:33:18.618Z,20.1
2022-10-22T02:34:20.162Z,20
2022-10-22T02:35:21.765Z,20
2022-10-22T02:36:23.400Z,20
2022-10-22T02:37:25.113Z,20
2022-10-22T02:38:26.785Z,20
2022-10-22T02:39:28.458Z,20
2022-10-22T02:40:30.134Z,20
2022-10-22T02:41:31.669Z,20
2022-10-22T02:42:33.200Z,20
2022-10-22T02:43:34.852Z,20
2022-10-22T02:44:36.471Z,20
2022-10-22T02:45:38.108Z,20
2022-10-22T02:46:39.673Z,20
2022-10-22T02:47:41.206Z,19.9
2022-10-22T02:48:42.777Z,19.9
2022-10-22T02:49:44.464Z,20
2022-10-22T02:50:46.029Z,19.9
2022-10-22T02:51:47.924Z,19.9
2022-10-22T02:52:49.524Z,19.9
2022-10-22T02:53:51.118Z,19.9
2022-10-22T02:54:52.824Z,19.9
2022-10-22T02:55:54.709Z,19.9
2022-10-22T02:56:56.571Z,19.9
2022-10-22T02:57:58.167Z,19.9
2022-10-22T02:58:59.808Z,19.9
2022-10-22T03:00:01.485Z,19.9
2022-10-22T03:01:03.228Z,19.9
2022-10-22T03:02:05.330Z,19.9
2022-10-22T03:03:06.911Z,19.8
2022-10-22T03:04:08.452Z,19.9
2022-10-22T03:05:10.164Z,19.8
2022-10-22T03:06:11.900Z,19.9
2022-10-22T03:07:14.082Z,19.9
2022-10-22T03:08:15.600Z,19.8
2022-10-22T03:09:20.055Z,19.8
2022-10-22T03:10:26.507Z,19.8
2022-10-22T03:11:31.279Z,19.8
2022-10-22T03:12:32.925Z,19.8
2022-10-22T03:13:34.470Z,19.8
2022-10-22T03:14:36.053Z,19.8
2022-10-22T03:15:37.673Z,19.8
2022-10-22T03:16:39.271Z,19.8
2022-10-22T03:17:41.123Z,19.8
2022-10-22T03:18:44.320Z,19.8
2022-10-22T03:19:45.874Z,19.8
2022-10-22T03:20:47.879Z,19.8
2022-10-22T03:21:49.429Z,19.8
2022-10-22T03:22:51.027Z,19.8
2022-10-22T03:23:52.617Z,19.8
2022-10-22T03:24:54.299Z,19.8
2022-10-22T03:25:56.752Z,19.8
2022-10-22T03:26:58.617Z,19.8
2022-10-22T03:28:00.456Z,19.8
2022-10-22T03:29:02.003Z,19.8
2022-10-22T03:30:03.686Z,19.8
2022-10-22T03:31:05.385Z,19.8
2022-10-22T03:32:07.016Z,19.8
2022-10-22T03:33:08.750Z,19.8
2022-10-22T03:34:10.381Z,19.8
2022-10-22T03:35:11.928Z,19.8
2022-10-22T03:36:13.621Z,19.8
2022-10-22T03:37:15.178Z,19.8
2022-10-22T03:38:16.871Z,19.8
2022-10-22T03:39:18.591Z,19.8
2022-10-22T03:40:20.197Z,19.8
2022-10-22T03:41:21.867Z,19.8
2022-10-22T03:42:23.586Z,19.8
2022-10-22T03:43:25.258Z,19.8
2022-10-22T03:44:26.861Z,19.8
2022-10-22T03:45:28.531Z,19.7
2022-10-22T03:46:30.495Z,19.7
2022-10-22T03:47:32.037Z,19.7
2022-10-22T03:48:33.615Z,19.7
2022-10-22T03:49:35.263Z,19.7
2022-10-22T03:50:36.864Z,19.7
2022-10-22T03:51:38.523Z,19.7
2022-10-22T03:52:40.064Z,19.7
2022-10-22T03:53:41.684Z,19.7
2022-10-22T03:54:43.275Z,19.7
2022-10-22T03:55:44.929Z,19.7
2022-10-22T03:56:46.720Z,19.7
2022-10-22T03:57:48.387Z,19.7
2022-10-22T03:58:49.967Z,19.7
2022-10-22T03:59:51.479Z,19.7
2022-10-22T04:00:53.193Z,19.7
2022-10-22T04:01:55.262Z,19.7
2022-10-22T04:02:56.806Z,19.7
2022-10-22T04:03:58.379Z,19.7
2022-10-22T04:05:00.120Z,19.7
2022-10-22T04:06:02.401Z,19.7
2022-10-22T04:07:03.971Z,19.7
2022-10-22T04:08:05.503Z,19.7
2022-10-22T04:09:07.074Z,19.7
2022-10-22T04:10:09.210Z,19.7
2022-10-22T04:11:10.758Z,19.7
2022-10-22T04:12:12.472Z,19.7
2022-10-22T04:13:14.173Z,19.7
2022-10-22T04:14:15.747Z,19.6
2022-10-22T04:15:17.464Z,19.6
2022-10-22T04:16:18.996Z,19.6
2022-10-22T04:17:20.767Z,19.6
2022-10-22T04:18:22.343Z,19.6
2022-10-22T04:19:23.895Z,19.6
2022-10-22T04:20:25.503Z,19.6
2022-10-22T04:21:27.086Z,19.6
2022-10-22T04:22:28.697Z,19.6
2022-10-22T04:23:30.377Z,19.6
2022-10-22T04:24:32.100Z,19.6
2022-10-22T04:25:33.744Z,19.7
2022-10-22T04:26:35.305Z,19.6
2022-10-22T04:27:37.169Z,19.6
2022-10-22T04:28:39.974Z,19.6
2022-10-22T04:29:41.534Z,19.6
2022-10-22T04:30:43.084Z,19.6
2022-10-22T04:31:44.620Z,19.6
2022-10-22T04:32:46.198Z,19.6
2022-10-22T04:33:47.745Z,19.6
2022-10-22T04:34:49.290Z,19.6
2022-10-22T04:35:50.930Z,19.6
2022-10-22T04:36:52.540Z,19.6
2022-10-22T04:37:54.164Z,19.6
2022-10-22T04:38:55.768Z,19.6
2022-10-22T04:39:58.080Z,19.6
2022-10-22T04:40:59.994Z,19.6
2022-10-22T04:42:01.679Z,19.6
2022-10-22T04:43:03.379Z,19.6
2022-10-22T04:44:05.206Z,19.6
2022-10-22T04:45:07.633Z,19.6
2022-10-22T04:46:09.278Z,19.6
2022-10-22T04:47:10.938Z,19.6
2022-10-22T04:48:15.455Z,19.5
2022-10-22T04:49:17.115Z,19.6
2022-10-22T04:50:18.613Z,19.5
2022-10-22T04:51:20.150Z,19.6
2022-10-22T04:52:21.877Z,19.5
2022-10-22T04:53:23.664Z,19.5
2022-10-22T04:54:27.740Z,19.5
2022-10-22T04:55:34.812Z,19.5
2022-10-22T04:56:36.449Z,19.5
2022-10-22T04:57:38.452Z,19.6
2022-10-22T04:58:42.008Z,19.5
2022-10-22T04:59:43.835Z,19.6
2022-10-22T05:00:45.603Z,19.6
2022-10-22T05:01:47.578Z,19.6
2022-10-22T05:02:49.120Z,19.5
2022-10-22T05:03:50.675Z,19.5
2022-10-22T05:04:52.273Z,19.5
2022-10-22T05:05:54.089Z,19.5
2022-10-22T05:06:58.606Z,19.6
2022-10-22T05:08:00.215Z,19.6
2022-10-22T05:09:01.843Z,19.6
2022-10-22T05:10:04.671Z,19.6
2022-10-22T05:11:06.490Z,19.6
2022-10-22T05:12:08.023Z,19.6
2022-10-22T05:13:09.561Z,19.5
2022-10-22T05:14:11.215Z,19.6
2022-10-22T05:15:12.998Z,19.6
2022-10-22T05:16:14.542Z,19.6
2022-10-22T05:18:26.192Z,19.6
2022-10-22T05:19:27.802Z,19.6
2022-10-22T05:20:29.351Z,19.6
2022-10-22T05:21:30.919Z,19.6
2022-10-22T05:22:32.555Z,19.6
2022-10-22T05:23:34.208Z,19.6
2022-10-22T05:24:35.810Z,19.6
2022-10-22T05:25:37.422Z,19.6
2022-10-22T05:26:39.452Z,19.6
2022-10-22T05:27:41.341Z,19.6
2022-10-22T05:28:44.483Z,19.6
2022-10-22T05:29:46.192Z,19.6
2022-10-22T05:30:47.916Z,19.6
2022-10-22T05:31:49.473Z,19.6
2022-10-22T05:32:51.094Z,19.5
2022-10-22T05:33:52.654Z,19.5
2022-10-22T05:34:54.186Z,19.6
2022-10-22T05:35:55.812Z,19.6
2022-10-22T05:36:57.539Z,19.6
2022-10-22T05:37:59.156Z,19.6
2022-10-22T05:39:00.948Z,19.5
2022-10-22T05:40:12.293Z,19.5
2022-10-22T05:41:32.928Z,19.6
2022-10-22T05:42:34.523Z,19.6
2022-10-22T05:43:36.132Z,19.6
2022-10-22T05:44:37.752Z,19.6
2022-10-22T05:45:39.515Z,19.6
2022-10-22T05:46:41.227Z,19.6
2022-10-22T05:47:42.805Z,19.5
2022-10-22T05:48:44.430Z,19.6
2022-10-22T05:49:46.331Z,19.6
2022-10-22T05:50:48.044Z,19.6
2022-10-22T05:51:49.589Z,19.6
2022-10-22T05:52:51.315Z,19.6
2022-10-22T05:53:52.867Z,19.6
2022-10-22T05:54:54.529Z,19.6
2022-10-22T05:55:56.069Z,19.6
2022-10-22T05:56:57.610Z,19.6
2022-10-22T05:57:59.254Z,19.6
2022-10-22T05:59:00.904Z,19.6
2022-10-22T06:00:05.819Z,19.7
2022-10-22T06:01:07.489Z,19.7
2022-10-22T06:02:09.339Z,19.7
2022-10-22T06:03:11.440Z,19.7
2022-10-22T06:04:13.019Z,19.7
2022-10-22T06:05:14.578Z,19.8
2022-10-22T06:06:16.307Z,19.8
2022-10-22T06:07:17.850Z,19.8
2022-10-22T06:08:19.383Z,19.8
2022-10-22T06:09:21.046Z,19.8
2022-10-22T06:10:22.690Z,19.8
2022-10-22T06:11:24.378Z,19.8
2022-10-22T06:12:25.947Z,19.8
2022-10-22T06:13:27.527Z,19.8
2022-10-22T06:14:29.071Z,19.8
2022-10-22T06:15:30.683Z,19.9
2022-10-22T06:16:32.366Z,19.9
2022-10-22T06:17:34.203Z,19.9
2022-10-22T06:18:35.756Z,19.9
2022-10-22T06:19:37.331Z,19.9
2022-10-22T06:20:38.953Z,19.9
2022-10-22T06:21:40.492Z,19.9
2022-10-22T06:22:42.425Z,19.9
2022-10-22T06:23:45.479Z,19.8
2022-10-22T06:24:47.119Z,19.9
2022-10-22T06:25:48.723Z,19.9
2022-10-22T06:26:50.383Z,19.9
2022-10-22T06:27:51.965Z,19.9
2022-10-22T06:28:53.539Z,19.9
2022-10-22T06:29:55.293Z,19.9
2022-10-22T06:30:56.916Z,19.9
2022-10-22T06:31:58.601Z,19.9
2022-10-22T06:33:00.370Z,19.9
2022-10-22T06:34:02.035Z,19.9
2022-10-22T06:35:03.593Z,20
2022-10-22T06:36:06.670Z,20
2022-10-22T06:37:09.638Z,20
2022-10-22T06:38:11.375Z,20
2022-10-22T06:39:12.977Z,20.1
2022-10-22T06:40:14.513Z,20.1
2022-10-22T06:41:16.257Z,20.1
2022-10-22T06:42:17.886Z,20.1
2022-10-22T06:43:19.414Z,20.1
2022-10-22T06:44:20.980Z,20.2
2022-10-22T06:45:22.673Z,20.2
2022-10-22T06:46:24.347Z,20.2
2022-10-22T06:47:26.027Z,20.2
2022-10-22T06:48:27.814Z,20.3
2022-10-22T06:49:29.440Z,20.3
2022-10-22T06:50:31.160Z,20.3
2022-10-22T06:51:32.842Z,20.4
2022-10-22T06:52:34.454Z,20.4
2022-10-22T06:53:38.710Z,20.4
2022-10-22T06:54:40.286Z,20.4
2022-10-22T06:55:41.941Z,20.4
2022-10-22T06:56:43.583Z,20.4
2022-10-22T06:57:45.143Z,20.4
2022-10-22T06:58:46.768Z,20.4
2022-10-22T06:59:48.424Z,20.4
2022-10-22T07:00:50.093Z,20.4
2022-10-22T07:01:51.826Z,20.4
2022-10-22T07:02:56.355Z,20.5
2022-10-22T07:04:01.486Z,20.5
2022-10-22T07:05:03.075Z,20.5
2022-10-22T07:06:04.726Z,20.5
2022-10-22T07:07:06.333Z,20.5
2022-10-22T07:08:07.976Z,20.6
2022-10-22T07:09:09.673Z,20.5
2022-10-22T07:10:11.987Z,20.6
2022-10-22T07:11:13.686Z,20.6
2022-10-22T07:12:15.490Z,20.6
2022-10-22T07:13:17.025Z,20.6
2022-10-22T07:14:18.568Z,20.6
2022-10-22T07:15:20.295Z,20.6
2022-10-22T07:16:22.084Z,20.6
2022-10-22T07:17:23.666Z,20.6
2022-10-22T07:18:25.564Z,20.6
2022-10-22T07:19:27.308Z,20.6
2022-10-22T07:20:28.848Z,20.6
2022-10-22T07:21:30.453Z,20.7
2022-10-22T07:22:32.348Z,20.7
2022-10-22T07:23:34.050Z,20.7
2022-10-22T07:24:35.682Z,20.7
2022-10-22T07:25:37.204Z,20.7
2022-10-22T07:26:39.153Z,20.7
2022-10-22T07:27:41.773Z,20.7
2022-10-22T07:28:45.023Z,20.7
2022-10-22T07:29:46.577Z,20.7
2022-10-22T07:30:48.998Z,20.8
2022-10-22T07:31:50.532Z,20.7
2022-10-22T07:32:52.179Z,20.8
2022-10-22T07:33:53.941Z,20.8
2022-10-22T07:34:55.673Z,20.8
2022-10-22T07:35:57.228Z,20.8
2022-10-22T07:36:58.874Z,20.8
2022-10-22T07:38:00.554Z,20.8
2022-10-22T07:39:02.274Z,20.8
2022-10-22T07:40:04.138Z,20.8
2022-10-22T07:41:06.225Z,20.8
2022-10-22T07:42:08.006Z,20.8
2022-10-22T07:43:09.985Z,20.8
2022-10-22T07:44:11.531Z,20.8
2022-10-22T07:45:16.019Z,20.9
2022-10-22T07:46:17.627Z,20.9
2022-10-22T07:47:22.116Z,20.9
2022-10-22T07:48:23.823Z,20.9
2022-10-22T07:49:25.567Z,20.9
2022-10-22T07:50:27.311Z,20.9
2022-10-22T07:51:28.878Z,20.9
2022-10-22T07:52:30.559Z,20.9
2022-10-22T07:53:32.257Z,20.9
2022-10-22T07:54:33.938Z,20.9
2022-10-22T07:55:35.629Z,20.9
2022-10-22T07:56:37.232Z,20.9
2022-10-22T07:57:38.876Z,20.9
2022-10-22T07:58:40.633Z,20.9
2022-10-22T07:59:42.425Z,20.9
2022-10-22T08:00:43.973Z,20.9
2022-10-22T08:01:45.752Z,20.9
2022-10-22T08:02:47.979Z,21
2022-10-22T08:03:49.605Z,21
2022-10-22T08:04:51.326Z,21
2022-10-22T08:05:53.186Z,21
2022-10-22T08:06:54.997Z,21
2022-10-22T08:07:56.714Z,21
2022-10-22T08:08:58.331Z,21
2022-10-22T08:10:00.265Z,21
2022-10-22T08:11:02.052Z,21
2022-10-22T08:12:03.655Z,21
2022-10-22T08:13:05.293Z,21
2022-10-22T08:14:06.947Z,21
2022-10-22T08:15:08.740Z,21
2022-10-22T08:16:10.985Z,21
2022-10-22T08:17:12.597Z,21
2022-10-22T08:18:14.329Z,21
2022-10-22T08:19:15.894Z,21
2022-10-22T08:20:17.654Z,21
2022-10-22T08:21:19.363Z,21.1
2022-10-22T08:22:20.925Z,21.1
2022-10-22T08:23:24.445Z,21.1
2022-10-22T08:24:30.423Z,21.1
2022-10-22T08:25:32.036Z,21.1
2022-10-22T08:26:33.627Z,21.1
2022-10-22T08:27:35.207Z,21.1
2022-10-22T08:28:36.949Z,21
2022-10-22T08:29:39.291Z,21
2022-10-22T08:30:40.848Z,21
2022-10-22T08:31:42.576Z,21
2022-10-22T08:32:44.288Z,21
2022-10-22T08:33:45.943Z,21
2022-10-22T08:34:47.487Z,21
2022-10-22T08:35:49.443Z,21
2022-10-22T08:36:51.278Z,21
2022-10-22T08:37:52.873Z,21
2022-10-22T08:38:54.491Z,21
2022-10-22T08:39:56.066Z,21
2022-10-22T08:40:57.878Z,21
2022-10-22T08:41:59.414Z,21.1
2022-10-22T08:43:01.009Z,21.1
2022-10-22T08:44:02.686Z,21.1
2022-10-22T08:45:04.381Z,21.1
2022-10-22T08:46:05.929Z,21
2022-10-22T08:47:07.471Z,21.1
2022-10-22T08:48:09.092Z,21.1
2022-10-22T08:49:10.703Z,21.1
2022-10-22T08:50:12.394Z,21.1
2022-10-22T08:51:14.123Z,21.1
2022-10-22T08:52:15.917Z,21.1
2022-10-22T08:53:17.598Z,21.1
2022-10-22T08:54:19.195Z,21.1
2022-10-22T08:55:20.749Z,21.1
2022-10-22T08:56:22.456Z,21.1
2022-10-22T08:57:24.101Z,21.1
2022-10-22T08:58:26.034Z,21.1
2022-10-22T08:59:27.577Z,21.1
2022-10-22T09:00:29.216Z,21.1
2022-10-22T09:01:30.834Z,21.1
2022-10-22T09:02:32.591Z,21.2
2022-10-22T09:03:34.364Z,21.1
2022-10-22T09:04:35.949Z,21.1
2022-10-22T09:05:40.530Z,21.1
2022-10-22T09:06:42.699Z,21.1
2022-10-22T09:07:44.535Z,21.1
2022-10-22T09:08:46.247Z,21.1
2022-10-22T09:09:48.221Z,21.1
2022-10-22T09:10:49.850Z,21.1
2022-10-22T09:11:51.379Z,21.1
2022-10-22T09:12:53.065Z,21.1
2022-10-22T09:13:54.744Z,21.1
2022-10-22T09:14:56.454Z,21.1
2022-10-22T09:15:58.116Z,21.1
2022-10-22T09:16:59.656Z,21.1
2022-10-22T09:18:01.395Z,21.2
2022-10-22T09:19:03.014Z,21.1
2022-10-22T09:20:04.688Z,21.1
2022-10-22T09:21:07.239Z,21.1
2022-10-22T09:22:09.008Z,21.1
2022-10-22T09:23:10.739Z,21.1
2022-10-22T09:24:12.482Z,21.2
2022-10-22T09:25:14.071Z,21.2
2022-10-22T09:26:15.691Z,21.2
2022-10-22T09:27:17.241Z,21.2
2022-10-22T09:28:18.799Z,21.2
2022-10-22T09:29:20.403Z,21.2
2022-10-22T09:30:22.541Z,21.2
2022-10-22T09:31:24.113Z,21.2
2022-10-22T09:32:25.698Z,21.2
2022-10-22T09:33:27.686Z,21.2
2022-10-22T09:34:29.530Z,21.2
2022-10-22T09:35:31.148Z,21.2
2022-10-22T09:36:32.792Z,21.2
2022-10-22T09:37:34.646Z,21.2
2022-10-22T09:38:36.445Z,21.2
2022-10-22T09:39:38.024Z,21.2
2022-10-22T09:40:39.600Z,21.2
2022-10-22T09:41:41.138Z,21.2
2022-10-22T09:42:43.279Z,21.3
2022-10-22T09:43:45.890Z,21.3
2022-10-22T09:44:50.215Z,21.3
2022-10-22T09:45:51.816Z,21.3
2022-10-22T09:46:53.508Z,21.3
2022-10-22T09:48:01.716Z,21.3
2022-10-22T09:49:04.462Z,21.3
2022-10-22T09:50:06.135Z,21.3
2022-10-22T09:51:07.777Z,21.3
2022-10-22T09:52:09.338Z,21.3
2022-10-22T09:53:11.195Z,21.3
2022-10-22T09:54:12.974Z,21.3
2022-10-22T09:55:14.582Z,21.3
2022-10-22T09:56:16.197Z,21.3
2022-10-22T09:57:17.804Z,21.3
2022-10-22T09:58:19.424Z,21.3
2022-10-22T09:59:21.132Z,21.3
2022-10-22T10:00:22.741Z,21.3
2022-10-22T10:01:24.362Z,21.3
2022-10-22T10:02:37.841Z,21.3
2022-10-22T10:03:40.751Z,21.3
2022-10-22T10:04:42.350Z,21.3
2022-10-22T10:05:43.972Z,21.3
2022-10-22T10:06:45.653Z,21.3
2022-10-22T10:07:47.232Z,21.3
2022-10-22T10:08:49.625Z,21.3
2022-10-22T10:09:52.011Z,21.3
2022-10-22T10:10:53.601Z,21.3
2022-10-22T10:11:55.184Z,21.3
2022-10-22T10:12:57.065Z,21.3
2022-10-22T10:13:58.832Z,21.3
2022-10-22T10:15:00.487Z,21.3
2022-10-22T10:16:02.145Z,21.3
2022-10-22T10:17:03.928Z,21.3
2022-10-22T10:18:05.704Z,21.3
2022-10-22T10:19:07.242Z,21.3
2022-10-22T10:20:08.856Z,21.3
2022-10-22T10:21:10.754Z,21.3
2022-10-22T10:22:12.776Z,21.3
2022-10-22T10:23:14.372Z,21.3
2022-10-22T10:24:16.271Z,21.3
2022-10-22T10:25:18.020Z,21.3
2022-10-22T10:26:19.684Z,21.3
2022-10-22T10:27:21.287Z,21.4
2022-10-22T10:28:22.939Z,21.3
2022-10-22T10:29:24.596Z,21.4
2022-10-22T10:30:26.552Z,21.4
2022-10-22T10:31:28.100Z,21.4
2022-10-22T10:32:29.839Z,21.4
2022-10-22T10:33:31.508Z,21.4
2022-10-22T10:34:33.242Z,21.4
2022-10-22T10:35:34.875Z,21.4
2022-10-22T10:36:36.712Z,21.4
2022-10-22T10:37:38.346Z,21.4
2022-10-22T10:38:39.925Z,21.4
2022-10-22T10:39:41.535Z,21.4
2022-10-22T10:40:43.327Z,21.4
2022-10-22T10:41:45.204Z,21.4
2022-10-22T10:42:46.820Z,21.4
2022-10-22T10:43:48.731Z,21.4
2022-10-22T10:44:50.362Z,21.4
2022-10-22T10:45:55.434Z,21.4
2022-10-22T10:46:57.526Z,21.5
2022-10-22T10:47:59.147Z,21.4
2022-10-22T10:49:00.803Z,21.5
2022-10-22T10:50:02.435Z,21.5
2022-10-22T10:51:04.083Z,21.5
2022-10-22T10:52:05.702Z,21.5
2022-10-22T10:53:07.299Z,21.5
2022-10-22T10:54:08.955Z,21.6
2022-10-22T10:55:10.770Z,21.6
2022-10-22T10:56:12.579Z,21.6
2022-10-22T10:57:14.254Z,21.6
2022-10-22T10:58:15.992Z,21.6
2022-10-22T10:59:17.702Z,21.6
2022-10-22T11:00:19.323Z,21.6
2022-10-22T11:01:20.983Z,21.6
2022-10-22T11:02:22.982Z,21.6
2022-10-22T11:03:24.706Z,21.6
2022-10-22T11:04:26.484Z,21.6
2022-10-22T11:05:28.221Z,21.6
2022-10-22T11:06:29.844Z,21.6
2022-10-22T11:07:34.478Z,21.6
2022-10-22T11:08:37.079Z,21.6
2022-10-22T11:09:39.016Z,21.7
2022-10-22T11:10:40.839Z,21.6
2022-10-22T11:11:42.603Z,21.6
2022-10-22T11:12:44.508Z,21.6
2022-10-22T11:13:46.585Z,21.6
2022-10-22T11:14:49.276Z,21.6
2022-10-22T11:15:50.823Z,21.6
2022-10-22T11:16:52.439Z,21.6
2022-10-22T11:17:54.066Z,21.6
2022-10-22T11:18:55.668Z,21.6
2022-10-22T11:19:59.875Z,21.7
2022-10-22T11:21:02.528Z,21.7
2022-10-22T11:22:04.205Z,21.7
2022-10-22T11:23:21.723Z,21.7
2022-10-22T11:24:24.874Z,21.7
2022-10-22T11:25:26.612Z,21.7
2022-10-22T11:26:28.225Z,21.7
2022-10-22T11:27:30.089Z,21.7
2022-10-22T11:28:31.708Z,21.7
2022-10-22T11:29:33.403Z,21.7
2022-10-22T11:30:34.991Z,21.7
2022-10-22T11:31:36.647Z,21.7
2022-10-22T11:32:38.538Z,21.7
2022-10-22T11:33:41.722Z,21.7
2022-10-22T11:34:43.369Z,21.7
2022-10-22T11:35:44.912Z,21.7
2022-10-22T11:36:46.561Z,21.7
2022-10-22T11:37:48.291Z,21.7
2022-10-22T11:38:49.969Z,21.7
2022-10-22T11:39:51.503Z,21.7
2022-10-22T11:40:53.054Z,21.7
2022-10-22T11:41:54.749Z,21.7
2022-10-22T11:42:56.675Z,21.8
2022-10-22T11:43:58.238Z,21.8
2022-10-22T11:44:59.997Z,21.8
2022-10-22T11:46:01.710Z,21.8
2022-10-22T11:47:03.256Z,21.8
2022-10-22T11:48:04.853Z,21.8
2022-10-22T11:49:09.372Z,21.8
2022-10-22T11:50:11.196Z,21.8
2022-10-22T11:51:12.821Z,21.8
2022-10-22T11:52:14.502Z,21.8
2022-10-22T11:53:16.259Z,21.8
2022-10-22T11:54:17.938Z,21.8
2022-10-22T11:55:19.545Z,21.8
2022-10-22T11:56:21.093Z,21.8
2022-10-22T11:57:22.708Z,21.8
2022-10-22T11:58:24.386Z,21.8
2022-10-22T11:59:25.995Z,21.8
2022-10-22T12:00:27.616Z,21.8
2022-10-22T12:01:29.286Z,21.8
2022-10-22T12:02:31.368Z,21.8
2022-10-22T12:03:32.952Z,21.8
2022-10-22T12:04:34.616Z,21.8
2022-10-22T12:05:36.819Z,21.8
2022-10-22T12:06:38.407Z,21.8
2022-10-22T12:07:39.959Z,21.8
2022-10-22T12:08:41.645Z,21.8
2022-10-22T12:09:43.653Z,21.8
2022-10-22T12:10:45.731Z,21.8
2022-10-22T12:11:47.364Z,21.8
2022-10-22T12:12:49.282Z,21.8
2022-10-22T12:13:50.999Z,21.8
2022-10-22T12:14:52.547Z,21.8
2022-10-22T12:15:54.269Z,21.8
2022-10-22T12:16:57.181Z,21.8
2022-10-22T12:17:59.737Z,21.8
2022-10-22T12:19:01.735Z,21.8
2022-10-22T12:20:03.446Z,21.9
2022-10-22T12:21:05.103Z,21.9
2022-10-22T12:22:06.705Z,21.9
2022-10-22T12:23:08.320Z,21.9
2022-10-22T12:24:09.908Z,21.9
2022-10-22T12:25:11.507Z,21.9
2022-10-22T12:26:13.042Z,21.9
2022-10-22T12:27:14.768Z,21.9
2022-10-22T12:28:23.688Z,21.9
2022-10-22T12:29:25.412Z,21.9
2022-10-22T12:30:27.165Z,21.9
2022-10-22T12:31:28.701Z,21.9
2022-10-22T12:32:30.287Z,21.9
2022-10-22T12:33:32.009Z,21.9
2022-10-22T12:34:33.587Z,21.9
2022-10-22T12:35:35.199Z,21.9
2022-10-22T12:36:36.739Z,21.9
2022-10-22T12:37:38.559Z,22
2022-10-22T12:38:41.554Z,22
2022-10-22T12:39:43.095Z,22
2022-10-22T12:40:46.077Z,22
2022-10-22T12:41:50.685Z,22
2022-10-22T12:42:52.235Z,22
2022-10-22T12:43:54.015Z,22
2022-10-22T12:44:55.756Z,22
2022-10-22T12:45:57.312Z,22
2022-10-22T12:46:58.981Z,22
2022-10-22T12:48:00.803Z,22
2022-10-22T12:49:02.574Z,22
2022-10-22T12:50:04.375Z,22
2022-10-22T12:51:05.911Z,22
2022-10-22T12:52:08.617Z,22
2022-10-22T12:53:15.533Z,22
2022-10-22T12:54:17.137Z,22
2022-10-22T12:55:18.782Z,22
2022-10-22T12:56:20.334Z,22
2022-10-22T12:57:21.967Z,22
2022-10-22T12:58:23.623Z,22
2022-10-22T12:59:25.338Z,22
2022-10-22T13:00:27.217Z,22
2022-10-22T13:01:29.212Z,22
2022-10-22T13:02:30.771Z,22
2022-10-22T13:03:32.392Z,22.1
2022-10-22T13:04:34.062Z,22
2022-10-22T13:05:35.644Z,22
2022-10-22T13:06:37.384Z,22
2022-10-22T13:07:38.926Z,22
2022-10-22T13:08:40.574Z,22
2022-10-22T13:09:42.682Z,22.1
2022-10-22T13:10:44.435Z,22.1
2022-10-22T13:11:46.067Z,22.1
2022-10-22T13:12:47.922Z,22.1
2022-10-22T13:13:49.434Z,22.1
2022-10-22T13:14:51.074Z,22.1
2022-10-22T13:15:53.057Z,22.1
2022-10-22T13:16:54.659Z,22.1
2022-10-22T13:17:56.507Z,22.1
2022-10-22T13:18:58.194Z,22.1
2022-10-22T13:19:59.725Z,22.1
2022-10-22T13:21:01.332Z,22.1
2022-10-22T13:22:03.040Z,22.1
2022-10-22T13:23:04.606Z,22.1
2022-10-22T13:24:06.179Z,22.1
2022-10-22T13:25:07.823Z,22.1
2022-10-22T13:26:09.459Z,22.1
2022-10-22T13:27:11.042Z,22.1
2022-10-22T13:28:12.616Z,22.1
2022-10-22T13:29:14.245Z,22.1
2022-10-22T13:30:15.859Z,22.1
2022-10-22T13:31:17.718Z,22.1
2022-10-22T13:32:19.339Z,22.1
2022-10-22T13:33:21.083Z,22.1
2022-10-22T13:34:22.901Z,22.1
2022-10-22T13:35:24.677Z,22.1
2022-10-22T13:36:26.274Z,22.1
2022-10-22T13:37:27.870Z,22.1
2022-10-22T13:38:29.513Z,22.1
2022-10-22T13:39:31.125Z,22.1
2022-10-22T13:40:32.941Z,22.1
2022-10-22T13:41:34.723Z,22.1
2022-10-22T13:42:36.658Z,22.1
2022-10-22T13:43:38.305Z,22.1
2022-10-22T13:44:39.852Z,22.1
2022-10-22T13:45:41.631Z,22.1
2022-10-22T13:46:43.375Z,22.1
2022-10-22T13:47:44.939Z,22.2
2022-10-22T13:48:46.584Z,22.2
2022-10-22T13:49:48.267Z,22.2
2022-10-22T13:50:50.126Z,22.2
2022-10-22T13:51:51.883Z,22.2